sensor_id;sensor_type;location;lat;lon;timestamp;temperature;humidity
8095;DHT22;4090;49.270;8.696;2022-08-23T00:00:06;25.10;66.60
8095;DHT22;4090;49.270;8.696;2022-08-23T00:02:50;25.00;66.60
8095;DHT22;4090;49.270;8.696;2022-08-23T00:05:32;25.00;66.70
8095;DHT22;4090;49.270;8.696;2022-08-23T00:08:14;25.00;66.80
8095;DHT22;4090;49.270;8.696;2022-08-23T00:10:57;25.00;66.80
8095;DHT22;4090;49.270;8.696;2022-08-23T00:13:39;25.00;67.20
8095;DHT22;4090;49.270;8.696;2022-08-23T00:16:21;25.00;67.50
8095;DHT22;4090;49.270;8.696;2022-08-23T00:19:05;25.00;67.70
8095;DHT22;4090;49.270;8.696;2022-08-23T00:21:48;25.00;67.80
8095;DHT22;4090;49.270;8.696;2022-08-23T00:24:31;24.90;68.00
8095;DHT22;4090;49.270;8.696;2022-08-23T00:27:14;24.80;68.00
8095;DHT22;4090;49.270;8.696;2022-08-23T00:29:57;24.70;68.50
8095;DHT22;4090;49.270;8.696;2022-08-23T00:32:40;24.70;68.80
8095;DHT22;4090;49.270;8.696;2022-08-23T00:35:23;24.70;68.70
8095;DHT22;4090;49.270;8.696;2022-08-23T00:38:05;24.70;68.70
8095;DHT22;4090;49.270;8.696;2022-08-23T00:40:49;24.70;68.90
8095;DHT22;4090;49.270;8.696;2022-08-23T00:43:36;24.60;69.20
8095;DHT22;4090;49.270;8.696;2022-08-23T00:46:41;24.60;69.30
8095;DHT22;4090;49.270;8.696;2022-08-23T00:49:44;24.40;69.50
8095;DHT22;4090;49.270;8.696;2022-08-23T00:52:36;24.40;69.70
8095;DHT22;4090;49.270;8.696;2022-08-23T00:55:19;24.30;69.90
8095;DHT22;4090;49.270;8.696;2022-08-23T00:58:02;24.30;70.20
8095;DHT22;4090;49.270;8.696;2022-08-23T01:00:44;24.30;70.30
8095;DHT22;4090;49.270;8.696;2022-08-23T01:03:28;24.20;70.50
8095;DHT22;4090;49.270;8.696;2022-08-23T01:06:14;24.10;70.60
8095;DHT22;4090;49.270;8.696;2022-08-23T01:09:00;24.10;71.70
8095;DHT22;4090;49.270;8.696;2022-08-23T01:11:48;24.00;71.10
8095;DHT22;4090;49.270;8.696;2022-08-23T01:14:36;24.00;71.30
8095;DHT22;4090;49.270;8.696;2022-08-23T01:17:21;23.90;71.30
8095;DHT22;4090;49.270;8.696;2022-08-23T01:20:08;23.90;71.40
8095;DHT22;4090;49.270;8.696;2022-08-23T01:22:56;23.90;71.70
8095;DHT22;4090;49.270;8.696;2022-08-23T01:25:41;23.80;71.80
8095;DHT22;4090;49.270;8.696;2022-08-23T01:28:24;23.80;71.90
8095;DHT22;4090;49.270;8.696;2022-08-23T01:31:06;23.80;72.00
8095;DHT22;4090;49.270;8.696;2022-08-23T01:33:53;23.80;72.00
8095;DHT22;4090;49.270;8.696;2022-08-23T01:36:36;23.80;72.10
8095;DHT22;4090;49.270;8.696;2022-08-23T01:39:18;23.80;72.10
8095;DHT22;4090;49.270;8.696;2022-08-23T01:42:02;23.80;72.20
8095;DHT22;4090;49.270;8.696;2022-08-23T01:44:44;23.70;72.40
8095;DHT22;4090;49.270;8.696;2022-08-23T01:47:26;23.70;72.60
8095;DHT22;4090;49.270;8.696;2022-08-23T01:50:09;23.60;72.70
8095;DHT22;4090;49.270;8.696;2022-08-23T01:52:52;23.60;73.00
8095;DHT22;4090;49.270;8.696;2022-08-23T01:55:36;23.50;73.20
8095;DHT22;4090;49.270;8.696;2022-08-23T01:58:20;23.40;73.60
8095;DHT22;4090;49.270;8.696;2022-08-23T02:01:03;23.30;73.90
8095;DHT22;4090;49.270;8.696;2022-08-23T02:03:46;23.30;74.10
8095;DHT22;4090;49.270;8.696;2022-08-23T02:06:28;23.20;74.40
8095;DHT22;4090;49.270;8.696;2022-08-23T02:09:11;23.20;74.50
8095;DHT22;4090;49.270;8.696;2022-08-23T02:11:53;23.30;74.30
8095;DHT22;4090;49.270;8.696;2022-08-23T02:14:37;23.30;74.20
8095;DHT22;4090;49.270;8.696;2022-08-23T02:17:23;23.40;74.30
8095;DHT22;4090;49.270;8.696;2022-08-23T02:20:06;23.40;74.30
8095;DHT22;4090;49.270;8.696;2022-08-23T02:22:48;23.30;74.30
8095;DHT22;4090;49.270;8.696;2022-08-23T02:25:31;23.30;74.40
8095;DHT22;4090;49.270;8.696;2022-08-23T02:28:13;23.30;74.50
8095;DHT22;4090;49.270;8.696;2022-08-23T02:30:56;23.30;74.70
8095;DHT22;4090;49.270;8.696;2022-08-23T02:33:38;23.30;74.90
8095;DHT22;4090;49.270;8.696;2022-08-23T02:36:19;23.20;75.00
8095;DHT22;4090;49.270;8.696;2022-08-23T02:39:02;23.10;75.20
8095;DHT22;4090;49.270;8.696;2022-08-23T02:41:44;23.10;75.50
8095;DHT22;4090;49.270;8.696;2022-08-23T02:44:27;23.10;75.50
8095;DHT22;4090;49.270;8.696;2022-08-23T02:47:15;23.10;75.60
8095;DHT22;4090;49.270;8.696;2022-08-23T02:50:06;23.10;75.80
8095;DHT22;4090;49.270;8.696;2022-08-23T02:52:49;23.10;75.70
8095;DHT22;4090;49.270;8.696;2022-08-23T02:55:31;23.10;75.80
8095;DHT22;4090;49.270;8.696;2022-08-23T02:58:13;23.00;76.00
8095;DHT22;4090;49.270;8.696;2022-08-23T03:00:55;22.90;76.30
8095;DHT22;4090;49.270;8.696;2022-08-23T03:03:39;22.80;76.50
8095;DHT22;4090;49.270;8.696;2022-08-23T03:06:21;22.80;76.80
8095;DHT22;4090;49.270;8.696;2022-08-23T03:09:04;22.80;76.90
8095;DHT22;4090;49.270;8.696;2022-08-23T03:11:47;22.80;76.70
8095;DHT22;4090;49.270;8.696;2022-08-23T03:14:31;22.90;76.70
8095;DHT22;4090;49.270;8.696;2022-08-23T03:17:13;22.90;76.70
8095;DHT22;4090;49.270;8.696;2022-08-23T03:19:56;22.80;76.90
8095;DHT22;4090;49.270;8.696;2022-08-23T03:22:38;22.70;77.10
8095;DHT22;4090;49.270;8.696;2022-08-23T03:25:21;22.70;77.30
8095;DHT22;4090;49.270;8.696;2022-08-23T03:28:25;22.70;77.50
8095;DHT22;4090;49.270;8.696;2022-08-23T03:31:08;22.60;77.70
8095;DHT22;4090;49.270;8.696;2022-08-23T03:34:00;22.50;78.00
8095;DHT22;4090;49.270;8.696;2022-08-23T03:36:43;22.50;78.10
8095;DHT22;4090;49.270;8.696;2022-08-23T03:39:25;22.50;78.20
8095;DHT22;4090;49.270;8.696;2022-08-23T03:42:09;22.50;78.40
8095;DHT22;4090;49.270;8.696;2022-08-23T03:44:51;22.50;78.40
8095;DHT22;4090;49.270;8.696;2022-08-23T03:47:33;22.60;78.30
8095;DHT22;4090;49.270;8.696;2022-08-23T03:50:15;22.60;78.10
8095;DHT22;4090;49.270;8.696;2022-08-23T03:52:59;22.60;78.20
8095;DHT22;4090;49.270;8.696;2022-08-23T03:55:42;22.60;78.30
8095;DHT22;4090;49.270;8.696;2022-08-23T03:58:28;22.50;78.20
8095;DHT22;4090;49.270;8.696;2022-08-23T04:01:10;22.50;78.40
8095;DHT22;4090;49.270;8.696;2022-08-23T04:03:52;22.50;78.50
8095;DHT22;4090;49.270;8.696;2022-08-23T04:06:34;22.50;78.60
8095;DHT22;4090;49.270;8.696;2022-08-23T04:09:17;22.50;78.70
8095;DHT22;4090;49.270;8.696;2022-08-23T04:12:00;22.50;78.90
8095;DHT22;4090;49.270;8.696;2022-08-23T04:14:43;22.40;78.90
8095;DHT22;4090;49.270;8.696;2022-08-23T04:17:26;22.40;79.10
8095;DHT22;4090;49.270;8.696;2022-08-23T04:20:08;22.50;79.10
8095;DHT22;4090;49.270;8.696;2022-08-23T04:22:57;22.50;79.20
8095;DHT22;4090;49.270;8.696;2022-08-23T04:25:42;22.40;79.20
8095;DHT22;4090;49.270;8.696;2022-08-23T04:28:25;22.40;79.30
8095;DHT22;4090;49.270;8.696;2022-08-23T04:31:07;22.40;80.40
8095;DHT22;4090;49.270;8.696;2022-08-23T04:33:51;22.30;79.70
8095;DHT22;4090;49.270;8.696;2022-08-23T04:36:36;22.30;79.90
8095;DHT22;4090;49.270;8.696;2022-08-23T04:39:18;22.30;80.00
8095;DHT22;4090;49.270;8.696;2022-08-23T04:42:02;22.30;80.10
8095;DHT22;4090;49.270;8.696;2022-08-23T04:45:06;22.30;80.20
8095;DHT22;4090;49.270;8.696;2022-08-23T04:47:50;22.20;80.20
8095;DHT22;4090;49.270;8.696;2022-08-23T04:50:32;22.20;80.30
8095;DHT22;4090;49.270;8.696;2022-08-23T04:53:26;22.20;80.40
8095;DHT22;4090;49.270;8.696;2022-08-23T04:56:31;22.20;80.60
8095;DHT22;4090;49.270;8.696;2022-08-23T04:59:14;22.10;80.60
8095;DHT22;4090;49.270;8.696;2022-08-23T05:01:58;22.10;80.80
8095;DHT22;4090;49.270;8.696;2022-08-23T05:04:40;22.10;80.90
8095;DHT22;4090;49.270;8.696;2022-08-23T05:07:23;22.10;81.10
8095;DHT22;4090;49.270;8.696;2022-08-23T05:10:06;22.10;81.20
8095;DHT22;4090;49.270;8.696;2022-08-23T05:12:48;22.10;81.30
8095;DHT22;4090;49.270;8.696;2022-08-23T05:15:33;22.10;81.40
8095;DHT22;4090;49.270;8.696;2022-08-23T05:18:18;22.10;81.40
8095;DHT22;4090;49.270;8.696;2022-08-23T05:21:01;22.10;81.40
8095;DHT22;4090;49.270;8.696;2022-08-23T05:23:43;22.10;81.70
8095;DHT22;4090;49.270;8.696;2022-08-23T05:26:31;22.10;81.80
8095;DHT22;4090;49.270;8.696;2022-08-23T05:29:13;22.10;81.90
8095;DHT22;4090;49.270;8.696;2022-08-23T05:32:03;22.10;81.90
8095;DHT22;4090;49.270;8.696;2022-08-23T05:34:45;22.10;81.90
8095;DHT22;4090;49.270;8.696;2022-08-23T05:37:27;22.10;82.10
8095;DHT22;4090;49.270;8.696;2022-08-23T05:40:09;22.10;82.20
8095;DHT22;4090;49.270;8.696;2022-08-23T05:43:00;22.10;82.30
8095;DHT22;4090;49.270;8.696;2022-08-23T05:45:42;22.10;82.50
8095;DHT22;4090;49.270;8.696;2022-08-23T05:48:25;22.10;82.70
8095;DHT22;4090;49.270;8.696;2022-08-23T05:51:11;22.10;82.60
8095;DHT22;4090;49.270;8.696;2022-08-23T05:53:56;22.10;82.70
8095;DHT22;4090;49.270;8.696;2022-08-23T05:56:40;22.10;82.80
8095;DHT22;4090;49.270;8.696;2022-08-23T05:59:25;22.10;82.80
8095;DHT22;4090;49.270;8.696;2022-08-23T06:02:07;22.20;83.00
8095;DHT22;4090;49.270;8.696;2022-08-23T06:04:50;22.20;83.20
8095;DHT22;4090;49.270;8.696;2022-08-23T06:07:32;22.20;83.30
8095;DHT22;4090;49.270;8.696;2022-08-23T06:10:14;22.20;83.40
8095;DHT22;4090;49.270;8.696;2022-08-23T06:13:02;22.20;83.70
8095;DHT22;4090;49.270;8.696;2022-08-23T06:15:44;22.10;83.70
8095;DHT22;4090;49.270;8.696;2022-08-23T06:18:26;22.10;83.90
8095;DHT22;4090;49.270;8.696;2022-08-23T06:21:17;22.10;83.90
8095;DHT22;4090;49.270;8.696;2022-08-23T06:24:02;22.10;84.10
8095;DHT22;4090;49.270;8.696;2022-08-23T06:26:44;22.20;84.40
8095;DHT22;4090;49.270;8.696;2022-08-23T06:29:26;22.20;84.50
8095;DHT22;4090;49.270;8.696;2022-08-23T06:32:27;22.20;84.50
8095;DHT22;4090;49.270;8.696;2022-08-23T06:35:27;22.20;84.60
8095;DHT22;4090;49.270;8.696;2022-08-23T06:38:34;22.20;84.60
8095;DHT22;4090;49.270;8.696;2022-08-23T06:41:43;22.30;84.90
8095;DHT22;4090;49.270;8.696;2022-08-23T06:44:41;22.30;84.90
8095;DHT22;4090;49.270;8.696;2022-08-23T06:47:30;22.30;84.80
8095;DHT22;4090;49.270;8.696;2022-08-23T06:50:12;22.30;85.10
8095;DHT22;4090;49.270;8.696;2022-08-23T06:53:30;22.40;85.00
8095;DHT22;4090;49.270;8.696;2022-08-23T06:56:27;22.50;85.00
8095;DHT22;4090;49.270;8.696;2022-08-23T06:59:19;22.50;85.50
8095;DHT22;4090;49.270;8.696;2022-08-23T07:02:19;22.60;85.60
8095;DHT22;4090;49.270;8.696;2022-08-23T07:05:20;22.60;85.40
8095;DHT22;4090;49.270;8.696;2022-08-23T07:08:20;22.60;85.50
8095;DHT22;4090;49.270;8.696;2022-08-23T07:11:03;22.60;85.40
8095;DHT22;4090;49.270;8.696;2022-08-23T07:13:47;22.60;85.60
8095;DHT22;4090;49.270;8.696;2022-08-23T07:16:32;22.60;85.70
8095;DHT22;4090;49.270;8.696;2022-08-23T07:19:15;22.60;85.80
8095;DHT22;4090;49.270;8.696;2022-08-23T07:21:58;22.60;85.80
8095;DHT22;4090;49.270;8.696;2022-08-23T07:24:40;22.70;86.20
8095;DHT22;4090;49.270;8.696;2022-08-23T07:27:23;22.70;86.00
8095;DHT22;4090;49.270;8.696;2022-08-23T07:30:14;22.80;86.10
8095;DHT22;4090;49.270;8.696;2022-08-23T07:32:55;22.80;86.30
8095;DHT22;4090;49.270;8.696;2022-08-23T07:35:46;22.90;86.20
8095;DHT22;4090;49.270;8.696;2022-08-23T07:38:29;22.90;85.80
8095;DHT22;4090;49.270;8.696;2022-08-23T07:41:12;22.90;85.80
8095;DHT22;4090;49.270;8.696;2022-08-23T07:43:55;23.00;85.60
8095;DHT22;4090;49.270;8.696;2022-08-23T07:46:41;23.00;85.60
8095;DHT22;4090;49.270;8.696;2022-08-23T07:49:24;23.00;85.60
8095;DHT22;4090;49.270;8.696;2022-08-23T07:52:08;23.10;86.00
8095;DHT22;4090;49.270;8.696;2022-08-23T07:54:50;23.10;86.00
8095;DHT22;4090;49.270;8.696;2022-08-23T07:57:44;23.10;85.50
8095;DHT22;4090;49.270;8.696;2022-08-23T08:01:09;23.20;85.80
8095;DHT22;4090;49.270;8.696;2022-08-23T08:04:01;23.20;86.20
8095;DHT22;4090;49.270;8.696;2022-08-23T08:06:47;23.20;86.10
8095;DHT22;4090;49.270;8.696;2022-08-23T08:09:32;23.30;86.20
8095;DHT22;4090;49.270;8.696;2022-08-23T08:12:15;23.30;85.60
8095;DHT22;4090;49.270;8.696;2022-08-23T08:14:57;23.40;85.60
8095;DHT22;4090;49.270;8.696;2022-08-23T08:17:47;23.40;85.60
8095;DHT22;4090;49.270;8.696;2022-08-23T08:20:33;23.40;86.20
8095;DHT22;4090;49.270;8.696;2022-08-23T08:23:36;23.50;85.90
8095;DHT22;4090;49.270;8.696;2022-08-23T08:26:47;23.50;86.00
8095;DHT22;4090;49.270;8.696;2022-08-23T08:29:30;23.60;84.70
8095;DHT22;4090;49.270;8.696;2022-08-23T08:32:11;23.60;84.10
8095;DHT22;4090;49.270;8.696;2022-08-23T08:34:53;23.60;83.70
8095;DHT22;4090;49.270;8.696;2022-08-23T08:37:37;23.70;83.90
8095;DHT22;4090;49.270;8.696;2022-08-23T08:40:24;23.70;84.00
8095;DHT22;4090;49.270;8.696;2022-08-23T08:43:17;23.80;83.60
8095;DHT22;4090;49.270;8.696;2022-08-23T08:46:06;23.80;83.70
8095;DHT22;4090;49.270;8.696;2022-08-23T08:48:56;23.90;83.90
8095;DHT22;4090;49.270;8.696;2022-08-23T08:51:43;23.90;83.80
8095;DHT22;4090;49.270;8.696;2022-08-23T08:54:31;24.00;82.50
8095;DHT22;4090;49.270;8.696;2022-08-23T08:57:17;24.00;82.20
8095;DHT22;4090;49.270;8.696;2022-08-23T09:00:03;24.10;82.30
8095;DHT22;4090;49.270;8.696;2022-08-23T09:02:51;24.10;82.90
8095;DHT22;4090;49.270;8.696;2022-08-23T09:05:37;24.20;82.70
8095;DHT22;4090;49.270;8.696;2022-08-23T09:08:43;24.20;82.90
8095;DHT22;4090;49.270;8.696;2022-08-23T09:11:38;24.30;82.50
8095;DHT22;4090;49.270;8.696;2022-08-23T09:14:46;24.40;82.60
8095;DHT22;4090;49.270;8.696;2022-08-23T09:17:36;24.40;83.10
8095;DHT22;4090;49.270;8.696;2022-08-23T09:20:23;24.50;81.40
8095;DHT22;4090;49.270;8.696;2022-08-23T09:23:08;24.50;81.20
8095;DHT22;4090;49.270;8.696;2022-08-23T09:25:54;24.60;81.20
8095;DHT22;4090;49.270;8.696;2022-08-23T09:28:45;24.60;81.90
8095;DHT22;4090;49.270;8.696;2022-08-23T09:31:38;24.60;82.80
8095;DHT22;4090;49.270;8.696;2022-08-23T09:34:37;24.70;82.40
8095;DHT22;4090;49.270;8.696;2022-08-23T09:37:24;24.70;80.90
8095;DHT22;4090;49.270;8.696;2022-08-23T09:40:18;24.80;80.30
8095;DHT22;4090;49.270;8.696;2022-08-23T09:43:07;25.00;79.60
8095;DHT22;4090;49.270;8.696;2022-08-23T09:45:58;25.00;79.30
8095;DHT22;4090;49.270;8.696;2022-08-23T09:48:44;25.10;80.10
8095;DHT22;4090;49.270;8.696;2022-08-23T09:51:34;25.20;80.60
8095;DHT22;4090;49.270;8.696;2022-08-23T09:54:20;25.30;79.70
8095;DHT22;4090;49.270;8.696;2022-08-23T09:57:07;25.40;79.20
8095;DHT22;4090;49.270;8.696;2022-08-23T09:59:50;25.40;78.40
8095;DHT22;4090;49.270;8.696;2022-08-23T10:02:41;25.50;76.70
8095;DHT22;4090;49.270;8.696;2022-08-23T10:05:36;25.70;76.30
8095;DHT22;4090;49.270;8.696;2022-08-23T10:08:25;25.70;76.50
8095;DHT22;4090;49.270;8.696;2022-08-23T10:11:15;25.90;76.50
8095;DHT22;4090;49.270;8.696;2022-08-23T10:13:58;26.00;76.00
8095;DHT22;4090;49.270;8.696;2022-08-23T10:16:47;26.00;75.40
8095;DHT22;4090;49.270;8.696;2022-08-23T10:19:41;26.20;75.00
8095;DHT22;4090;49.270;8.696;2022-08-23T10:22:27;26.40;74.50
8095;DHT22;4090;49.270;8.696;2022-08-23T10:25:40;26.50;73.70
8095;DHT22;4090;49.270;8.696;2022-08-23T10:28:32;26.60;73.10
8095;DHT22;4090;49.270;8.696;2022-08-23T10:31:43;26.80;72.90
8095;DHT22;4090;49.270;8.696;2022-08-23T10:34:41;26.90;72.70
8095;DHT22;4090;49.270;8.696;2022-08-23T10:37:35;27.00;71.70
8095;DHT22;4090;49.270;8.696;2022-08-23T10:40:26;27.10;71.20
8095;DHT22;4090;49.270;8.696;2022-08-23T10:43:14;27.20;70.80
8095;DHT22;4090;49.270;8.696;2022-08-23T10:45:58;27.40;70.50
8095;DHT22;4090;49.270;8.696;2022-08-23T10:48:51;27.60;69.40
8095;DHT22;4090;49.270;8.696;2022-08-23T10:51:38;27.80;68.00
8095;DHT22;4090;49.270;8.696;2022-08-23T10:54:29;28.00;67.20
8095;DHT22;4090;49.270;8.696;2022-08-23T10:57:19;28.10;68.00
8095;DHT22;4090;49.270;8.696;2022-08-23T11:00:05;28.20;68.60
8095;DHT22;4090;49.270;8.696;2022-08-23T11:02:56;28.40;68.70
8095;DHT22;4090;49.270;8.696;2022-08-23T11:09:08;28.80;66.00
8095;DHT22;4090;49.270;8.696;2022-08-23T11:12:09;28.90;65.20
8095;DHT22;4090;49.270;8.696;2022-08-23T11:15:18;29.10;64.00
8095;DHT22;4090;49.270;8.696;2022-08-23T11:18:04;29.40;62.70
8095;DHT22;4090;49.270;8.696;2022-08-23T11:24:32;29.80;60.90
8095;DHT22;4090;49.270;8.696;2022-08-23T11:27:33;30.00;59.30
8095;DHT22;4090;49.270;8.696;2022-08-23T11:30:45;30.20;58.80
8095;DHT22;4090;49.270;8.696;2022-08-23T11:33:34;30.40;57.90
8095;DHT22;4090;49.270;8.696;2022-08-23T11:36:18;30.60;56.80
8095;DHT22;4090;49.270;8.696;2022-08-23T11:39:08;30.80;55.40
8095;DHT22;4090;49.270;8.696;2022-08-23T11:42:04;31.00;55.30
8095;DHT22;4090;49.270;8.696;2022-08-23T11:44:49;31.20;55.20
8095;DHT22;4090;49.270;8.696;2022-08-23T11:47:39;31.40;54.80
8095;DHT22;4090;49.270;8.696;2022-08-23T11:50:25;31.50;55.40
8095;DHT22;4090;49.270;8.696;2022-08-23T11:53:29;31.60;55.30
8095;DHT22;4090;49.270;8.696;2022-08-23T11:56:31;31.60;54.90
8095;DHT22;4090;49.270;8.696;2022-08-23T11:59:29;31.80;54.60
8095;DHT22;4090;49.270;8.696;2022-08-23T12:02:56;31.90;54.00
8095;DHT22;4090;49.270;8.696;2022-08-23T12:06:04;32.00;53.30
8095;DHT22;4090;49.270;8.696;2022-08-23T12:08:50;32.10;53.30
8095;DHT22;4090;49.270;8.696;2022-08-23T12:15:03;32.30;51.80
8095;DHT22;4090;49.270;8.696;2022-08-23T12:18:11;32.50;51.30
8095;DHT22;4090;49.270;8.696;2022-08-23T12:20:57;32.50;50.80
8095;DHT22;4090;49.270;8.696;2022-08-23T12:23:43;32.60;50.50
8095;DHT22;4090;49.270;8.696;2022-08-23T12:26:29;32.80;50.50
8095;DHT22;4090;49.270;8.696;2022-08-23T12:29:23;32.90;49.60
8095;DHT22;4090;49.270;8.696;2022-08-23T12:32:12;33.00;49.90
8095;DHT22;4090;49.270;8.696;2022-08-23T12:35:16;33.10;49.80
8095;DHT22;4090;49.270;8.696;2022-08-23T12:38:05;33.20;48.70
8095;DHT22;4090;49.270;8.696;2022-08-23T12:40:50;33.30;48.70
8095;DHT22;4090;49.270;8.696;2022-08-23T12:43:32;33.40;48.90
8095;DHT22;4090;49.270;8.696;2022-08-23T12:46:28;33.40;48.60
8095;DHT22;4090;49.270;8.696;2022-08-23T12:49:24;33.50;48.90
8095;DHT22;4090;49.270;8.696;2022-08-23T12:52:09;33.60;48.40
8095;DHT22;4090;49.270;8.696;2022-08-23T12:54:51;33.60;47.90
8095;DHT22;4090;49.270;8.696;2022-08-23T12:57:39;33.70;49.10
8095;DHT22;4090;49.270;8.696;2022-08-23T13:00:25;33.70;49.50
8095;DHT22;4090;49.270;8.696;2022-08-23T13:03:15;33.80;48.00
8095;DHT22;4090;49.270;8.696;2022-08-23T13:06:01;33.90;47.80
8095;DHT22;4090;49.270;8.696;2022-08-23T13:08:48;34.00;47.50
8095;DHT22;4090;49.270;8.696;2022-08-23T13:11:33;34.00;47.40
8095;DHT22;4090;49.270;8.696;2022-08-23T13:14:22;34.00;47.10
8095;DHT22;4090;49.270;8.696;2022-08-23T13:17:21;34.10;47.40
8095;DHT22;4090;49.270;8.696;2022-08-23T13:20:15;34.10;48.00
8095;DHT22;4090;49.270;8.696;2022-08-23T13:23:02;34.10;48.50
8095;DHT22;4090;49.270;8.696;2022-08-23T13:25:45;34.20;48.50
8095;DHT22;4090;49.270;8.696;2022-08-23T13:28:28;34.30;47.90
8095;DHT22;4090;49.270;8.696;2022-08-23T13:31:10;34.40;48.20
8095;DHT22;4090;49.270;8.696;2022-08-23T13:33:52;34.40;47.70
8095;DHT22;4090;49.270;8.696;2022-08-23T13:36:34;34.60;46.80
8095;DHT22;4090;49.270;8.696;2022-08-23T13:39:17;34.60;46.70
8095;DHT22;4090;49.270;8.696;2022-08-23T13:41:59;34.70;45.90
8095;DHT22;4090;49.270;8.696;2022-08-23T13:44:41;34.70;47.40
8095;DHT22;4090;49.270;8.696;2022-08-23T13:47:25;34.80;47.30
8095;DHT22;4090;49.270;8.696;2022-08-23T13:50:14;34.80;47.00
8095;DHT22;4090;49.270;8.696;2022-08-23T13:52:58;34.80;47.50
8095;DHT22;4090;49.270;8.696;2022-08-23T13:55:45;34.90;47.30
8095;DHT22;4090;49.270;8.696;2022-08-23T13:58:29;35.00;46.90
8095;DHT22;4090;49.270;8.696;2022-08-23T14:01:17;35.10;46.40
8095;DHT22;4090;49.270;8.696;2022-08-23T14:03:59;35.20;46.10
8095;DHT22;4090;49.270;8.696;2022-08-23T14:06:41;35.20;46.00
8095;DHT22;4090;49.270;8.696;2022-08-23T14:09:23;35.30;46.30
8095;DHT22;4090;49.270;8.696;2022-08-23T14:12:11;35.30;45.30
8095;DHT22;4090;49.270;8.696;2022-08-23T14:14:54;35.30;44.30
8095;DHT22;4090;49.270;8.696;2022-08-23T14:17:39;35.30;44.10
8095;DHT22;4090;49.270;8.696;2022-08-23T14:20:22;35.30;44.30
8095;DHT22;4090;49.270;8.696;2022-08-23T14:23:04;35.30;44.20
8095;DHT22;4090;49.270;8.696;2022-08-23T14:25:48;35.30;44.40
8095;DHT22;4090;49.270;8.696;2022-08-23T14:28:33;35.20;44.20
8095;DHT22;4090;49.270;8.696;2022-08-23T14:31:15;35.20;44.10
8095;DHT22;4090;49.270;8.696;2022-08-23T14:33:57;35.20;44.50
8095;DHT22;4090;49.270;8.696;2022-08-23T14:36:39;35.20;44.50
8095;DHT22;4090;49.270;8.696;2022-08-23T14:39:21;35.30;44.10
8095;DHT22;4090;49.270;8.696;2022-08-23T14:42:04;35.30;44.10
8095;DHT22;4090;49.270;8.696;2022-08-23T14:44:48;35.30;43.30
8095;DHT22;4090;49.270;8.696;2022-08-23T14:47:29;35.30;43.40
8095;DHT22;4090;49.270;8.696;2022-08-23T14:50:12;35.30;43.60
8095;DHT22;4090;49.270;8.696;2022-08-23T14:52:54;35.30;43.30
8095;DHT22;4090;49.270;8.696;2022-08-23T14:55:36;35.30;43.60
8095;DHT22;4090;49.270;8.696;2022-08-23T14:58:18;35.40;43.50
8095;DHT22;4090;49.270;8.696;2022-08-23T15:01:02;35.40;43.30
8095;DHT22;4090;49.270;8.696;2022-08-23T15:03:45;35.40;43.40
8095;DHT22;4090;49.270;8.696;2022-08-23T15:06:27;35.30;43.80
8095;DHT22;4090;49.270;8.696;2022-08-23T15:09:09;35.30;44.60
8095;DHT22;4090;49.270;8.696;2022-08-23T15:11:51;35.20;44.00
8095;DHT22;4090;49.270;8.696;2022-08-23T15:14:34;35.20;44.00
8095;DHT22;4090;49.270;8.696;2022-08-23T15:17:17;35.20;44.20
8095;DHT22;4090;49.270;8.696;2022-08-23T15:19:59;35.20;43.90
8095;DHT22;4090;49.270;8.696;2022-08-23T15:22:41;35.20;44.00
8095;DHT22;4090;49.270;8.696;2022-08-23T15:25:24;35.20;44.00
8095;DHT22;4090;49.270;8.696;2022-08-23T15:28:09;35.20;44.70
8095;DHT22;4090;49.270;8.696;2022-08-23T15:30:51;35.10;44.80
8095;DHT22;4090;49.270;8.696;2022-08-23T15:33:35;35.10;44.50
8095;DHT22;4090;49.270;8.696;2022-08-23T15:36:17;35.10;44.00
8095;DHT22;4090;49.270;8.696;2022-08-23T15:38:58;35.10;44.00
8095;DHT22;4090;49.270;8.696;2022-08-23T15:41:40;35.10;44.40
8095;DHT22;4090;49.270;8.696;2022-08-23T15:44:22;35.00;44.30
8095;DHT22;4090;49.270;8.696;2022-08-23T15:47:13;35.00;44.20
8095;DHT22;4090;49.270;8.696;2022-08-23T15:50:00;35.10;44.40
8095;DHT22;4090;49.270;8.696;2022-08-23T15:52:42;35.10;44.40
8095;DHT22;4090;49.270;8.696;2022-08-23T15:55:27;35.10;44.60
8095;DHT22;4090;49.270;8.696;2022-08-23T15:58:13;35.20;44.30
8095;DHT22;4090;49.270;8.696;2022-08-23T16:00:55;35.20;44.20
8095;DHT22;4090;49.270;8.696;2022-08-23T16:03:38;35.20;44.70
8095;DHT22;4090;49.270;8.696;2022-08-23T16:06:23;35.20;44.20
8095;DHT22;4090;49.270;8.696;2022-08-23T16:09:11;35.20;44.60
8095;DHT22;4090;49.270;8.696;2022-08-23T16:11:54;35.10;44.00
8095;DHT22;4090;49.270;8.696;2022-08-23T16:14:36;35.10;44.00
8095;DHT22;4090;49.270;8.696;2022-08-23T16:17:18;35.10;44.00
8095;DHT22;4090;49.270;8.696;2022-08-23T16:20:00;35.10;44.10
8095;DHT22;4090;49.270;8.696;2022-08-23T16:22:44;35.10;43.90
8095;DHT22;4090;49.270;8.696;2022-08-23T16:25:26;35.00;43.90
8095;DHT22;4090;49.270;8.696;2022-08-23T16:28:08;35.00;44.10
8095;DHT22;4090;49.270;8.696;2022-08-23T16:30:50;34.90;43.90
8095;DHT22;4090;49.270;8.696;2022-08-23T16:33:32;34.90;44.00
8095;DHT22;4090;49.270;8.696;2022-08-23T16:36:15;34.80;44.60
8095;DHT22;4090;49.270;8.696;2022-08-23T16:38:59;34.80;44.50
8095;DHT22;4090;49.270;8.696;2022-08-23T16:41:41;34.70;44.50
8095;DHT22;4090;49.270;8.696;2022-08-23T16:44:23;34.60;44.90
8095;DHT22;4090;49.270;8.696;2022-08-23T16:47:06;34.60;44.50
8095;DHT22;4090;49.270;8.696;2022-08-23T16:49:49;34.60;44.20
8095;DHT22;4090;49.270;8.696;2022-08-23T16:52:31;34.50;44.70
8095;DHT22;4090;49.270;8.696;2022-08-23T16:55:14;34.50;44.50
8095;DHT22;4090;49.270;8.696;2022-08-23T16:57:56;34.50;44.60
8095;DHT22;4090;49.270;8.696;2022-08-23T17:00:38;34.40;44.70
8095;DHT22;4090;49.270;8.696;2022-08-23T17:03:20;34.40;44.50
8095;DHT22;4090;49.270;8.696;2022-08-23T17:06:03;34.30;44.90
8095;DHT22;4090;49.270;8.696;2022-08-23T17:08:45;34.20;44.80
8095;DHT22;4090;49.270;8.696;2022-08-23T17:11:29;34.20;44.90
8095;DHT22;4090;49.270;8.696;2022-08-23T17:14:11;34.10;45.30
8095;DHT22;4090;49.270;8.696;2022-08-23T17:16:54;34.10;45.40
8095;DHT22;4090;49.270;8.696;2022-08-23T17:19:35;34.00;45.50
8095;DHT22;4090;49.270;8.696;2022-08-23T17:22:17;34.00;45.80
8095;DHT22;4090;49.270;8.696;2022-08-23T17:24:59;34.00;45.90
8095;DHT22;4090;49.270;8.696;2022-08-23T17:27:43;33.90;46.00
8095;DHT22;4090;49.270;8.696;2022-08-23T17:30:26;33.80;46.30
8095;DHT22;4090;49.270;8.696;2022-08-23T17:33:08;33.80;46.20
8095;DHT22;4090;49.270;8.696;2022-08-23T17:35:50;33.70;46.50
8095;DHT22;4090;49.270;8.696;2022-08-23T17:38:32;33.70;46.70
8095;DHT22;4090;49.270;8.696;2022-08-23T17:41:15;33.60;47.20
8095;DHT22;4090;49.270;8.696;2022-08-23T17:43:58;33.60;47.90
8095;DHT22;4090;49.270;8.696;2022-08-23T17:46:43;33.50;47.60
8095;DHT22;4090;49.270;8.696;2022-08-23T17:49:25;33.40;48.50
8095;DHT22;4090;49.270;8.696;2022-08-23T17:52:07;33.30;48.20
8095;DHT22;4090;49.270;8.696;2022-08-23T17:54:51;33.20;48.80
8095;DHT22;4090;49.270;8.696;2022-08-23T17:57:33;33.20;49.60
8095;DHT22;4090;49.270;8.696;2022-08-23T18:00:18;33.10;48.80
8095;DHT22;4090;49.270;8.696;2022-08-23T18:03:00;32.90;48.90
8095;DHT22;4090;49.270;8.696;2022-08-23T18:05:42;32.80;49.10
8095;DHT22;4090;49.270;8.696;2022-08-23T18:08:25;32.70;49.60
8095;DHT22;4090;49.270;8.696;2022-08-23T18:11:07;32.60;50.20
8095;DHT22;4090;49.270;8.696;2022-08-23T18:13:49;32.50;50.90
8095;DHT22;4090;49.270;8.696;2022-08-23T18:16:32;32.40;50.60